Time;durP1;ratioP1;P1;durP2;ratioP2;P2;SDS_P1;SDS_P2;PMS_P1;PMS_P2;Temp;Humidity;BMP_temperature;BMP_pressure;BME280_temperature;BME280_humidity;BME280_pressure;Samples;Min_cycle;Max_cycle;Signal;HPM_P1;HPM_P2
2023/09/17 00:03:12;;;;;;;14.77;3.60;;;;;;;;;;5043749;28;20046;-77
2023/09/17 00:06:53;;;;;;;15.65;3.38;;;;;;;;;;5044835;28;20546;-76
2023/09/17 00:10:33;;;;;;;13.07;3.28;;;;;;;;;;5046551;28;20049;-78
2023/09/17 00:14:13;;;;;;;19.10;4.20;;;;;;;;;;5041285;28;20049;-78
2023/09/17 00:17:55;;;;;;;12.10;3.40;;;;;;;;;;5051917;28;20126;-77
2023/09/17 00:21:35;;;;;;;12.93;3.58;;;;;;;;;;5042126;28;20143;-77
2023/09/17 00:25:16;;;;;;;18.40;3.70;;;;;;;;;;5040707;28;20049;-77
2023/09/17 00:28:56;;;;;;;14.55;3.67;;;;;;;;;;5041734;28;20124;-79
2023/09/17 00:32:38;;;;;;;14.60;3.85;;;;;;;;;;5051460;28;20432;-78
2023/09/17 00:36:19;;;;;;;18.20;3.90;;;;;;;;;;5046761;28;20045;-76
2023/09/17 00:39:59;;;;;;;13.48;3.38;;;;;;;;;;5046702;28;20041;-76
2023/09/17 00:43:39;;;;;;;22.25;4.60;;;;;;;;;;5037414;28;20044;-78
2023/09/17 00:47:20;;;;;;;14.40;3.97;;;;;;;;;;5039815;28;20041;-77
2023/09/17 00:51:00;;;;;;;14.60;3.83;;;;;;;;;;5038620;28;20045;-76
2023/09/17 00:54:41;;;;;;;14.07;3.80;;;;;;;;;;5035893;28;20496;-76
2023/09/17 00:58:22;;;;;;;16.88;4.43;;;;;;;;;;5044485;28;20057;-78
2023/09/17 01:02:02;;;;;;;19.08;4.05;;;;;;;;;;5039087;28;20484;-77
2023/09/17 01:05:42;;;;;;;18.40;4.43;;;;;;;;;;5044991;28;20041;-77
2023/09/17 01:09:23;;;;;;;13.63;3.90;;;;;;;;;;5044774;28;20045;-78
2023/09/17 01:13:04;;;;;;;19.98;4.63;;;;;;;;;;5042978;28;20052;-77
2023/09/17 01:16:45;;;;;;;18.55;4.47;;;;;;;;;;5048857;28;20069;-76
2023/09/17 01:20:25;;;;;;;20.60;4.53;;;;;;;;;;5049101;28;20102;-79
2023/09/17 01:24:05;;;;;;;18.60;4.20;;;;;;;;;;5048719;28;20767;-79
2023/09/17 01:27:46;;;;;;;18.20;4.30;;;;;;;;;;5037271;28;20050;-79
2023/09/17 01:31:27;;;;;;;24.23;4.15;;;;;;;;;;5045140;28;20140;-77
2023/09/17 01:35:08;;;;;;;20.52;4.80;;;;;;;;;;5033767;28;20061;-78
2023/09/17 01:38:52;;;;;;;25.17;4.53;;;;;;;;;;5042723;28;20548;-78
2023/09/17 01:42:32;;;;;;;19.45;3.97;;;;;;;;;;5047107;28;20053;-79
2023/09/17 01:46:15;;;;;;;15.85;4.03;;;;;;;;;;5051956;28;20041;-80
2023/09/17 01:49:57;;;;;;;13.45;3.92;;;;;;;;;;5045201;28;20039;-80
2023/09/17 01:53:36;;;;;;;21.33;4.18;;;;;;;;;;5043372;28;20147;-80
2023/09/17 01:57:16;;;;;;;17.98;4.10;;;;;;;;;;5039359;28;20049;-78
2023/09/17 02:01:02;;;;;;;15.63;3.85;;;;;;;;;;5042891;28;20148;-78
2023/09/17 02:04:42;;;;;;;14.93;3.97;;;;;;;;;;5042697;28;20064;-78
2023/09/17 02:08:22;;;;;;;12.30;4.72;;;;;;;;;;5041123;28;20052;-78
2023/09/17 02:12:02;;;;;;;17.20;3.85;;;;;;;;;;5042077;28;20485;-77
2023/09/17 02:15:45;;;;;;;20.92;4.30;;;;;;;;;;5037403;28;20118;-79
2023/09/17 02:19:26;;;;;;;14.40;4.55;;;;;;;;;;5043978;28;20417;-77
2023/09/17 02:23:06;;;;;;;16.30;4.07;;;;;;;;;;5048136;28;20045;-78
2023/09/17 02:26:47;;;;;;;15.88;4.40;;;;;;;;;;5047584;28;20064;-78
2023/09/17 02:30:28;;;;;;;17.38;3.95;;;;;;;;;;5048924;28;20550;-78
2023/09/17 02:34:08;;;;;;;18.23;4.07;;;;;;;;;;5040626;28;20101;-77
2023/09/17 02:37:49;;;;;;;14.63;3.88;;;;;;;;;;5046202;28;20076;-76
2023/09/17 02:41:29;;;;;;;16.60;4.20;;;;;;;;;;5045230;28;20152;-78
2023/09/17 02:45:09;;;;;;;14.30;4.10;;;;;;;;;;5040065;28;20128;-77
2023/09/17 02:48:51;;;;;;;17.02;4.30;;;;;;;;;;5039052;28;20053;-74
2023/09/17 02:52:30;;;;;;;15.35;4.28;;;;;;;;;;5042880;28;20507;-77
2023/09/17 02:56:12;;;;;;;15.57;4.30;;;;;;;;;;5043453;28;20635;-75
2023/09/17 02:59:52;;;;;;;23.38;4.25;;;;;;;;;;5039135;28;20055;-75
2023/09/17 03:03:34;;;;;;;18.35;4.43;;;;;;;;;;5044855;28;20048;-75
2023/09/17 03:07:17;;;;;;;17.13;4.40;;;;;;;;;;5043179;28;20044;-76
2023/09/17 03:10:54;;;;;;;13.07;4.00;;;;;;;;;;5039691;28;20395;-75
2023/09/17 03:14:35;;;;;;;16.00;3.88;;;;;;;;;;5045460;28;20045;-75
2023/09/17 03:18:16;;;;;;;14.77;4.38;;;;;;;;;;5037865;28;20044;-76
2023/09/17 03:21:56;;;;;;;26.13;4.55;;;;;;;;;;5038636;28;20041;-75
2023/09/17 03:25:37;;;;;;;19.80;4.57;;;;;;;;;;5045100;28;20075;-78
2023/09/17 03:29:19;;;;;;;20.92;4.47;;;;;;;;;;5044551;28;20068;-75
2023/09/17 03:32:59;;;;;;;16.83;4.90;;;;;;;;;;5046955;28;20080;-76
2023/09/17 03:36:40;;;;;;;17.00;4.60;;;;;;;;;;5046822;28;20186;-75
2023/09/17 03:40:26;;;;;;;14.25;3.80;;;;;;;;;;5045955;28;20052;-76
2023/09/17 03:42:52;;;;;;;16.75;4.00;;;;;;;;;;5045583;28;20061;-75
2023/09/17 03:45:19;;;;;;;22.75;4.60;;;;;;;;;;5052297;28;20178;-75
2023/09/17 03:47:47;;;;;;;17.23;4.13;;;;;;;;;;5049047;28;20045;-75
2023/09/17 03:50:17;;;;;;;21.17;4.25;;;;;;;;;;5046872;28;20053;-74
2023/09/17 03:52:46;;;;;;;23.05;5.25;;;;;;;;;;5045527;28;20132;-74
2023/09/17 03:55:52;;;;;;;20.25;4.93;;;;;;;;;;5043550;28;20059;-73
2023/09/17 03:59:32;;;;;;;19.92;4.85;;;;;;;;;;5043656;28;20048;-74
2023/09/17 04:03:17;;;;;;;20.52;4.88;;;;;;;;;;5041230;28;20120;-76
2023/09/17 04:06:53;;;;;;;14.32;4.70;;;;;;;;;;5037209;28;20047;-74
2023/09/17 04:10:33;;;;;;;15.43;4.95;;;;;;;;;;5041757;28;20080;-75
2023/09/17 04:14:14;;;;;;;23.58;5.10;;;;;;;;;;5046747;28;20040;-76
2023/09/17 04:17:54;;;;;;;16.15;4.75;;;;;;;;;;5043915;28;20049;-76
2023/09/17 04:21:34;;;;;;;22.80;4.35;;;;;;;;;;5039180;28;20053;-76
2023/09/17 04:25:16;;;;;;;16.42;4.68;;;;;;;;;;5043909;28;20071;-75
2023/09/17 04:28:55;;;;;;;17.48;5.13;;;;;;;;;;5036770;28;20052;-75
2023/09/17 04:32:37;;;;;;;23.65;5.25;;;;;;;;;;5046290;28;20242;-76
2023/09/17 04:36:17;;;;;;;23.88;5.10;;;;;;;;;;5044979;28;20097;-75
2023/09/17 04:39:59;;;;;;;22.40;5.53;;;;;;;;;;5044907;28;20045;-76
2023/09/17 04:43:39;;;;;;;18.75;5.40;;;;;;;;;;5042369;28;20140;-76
2023/09/17 04:47:20;;;;;;;22.30;5.72;;;;;;;;;;5048213;28;20057;-75
2023/09/17 04:51:02;;;;;;;21.00;5.95;;;;;;;;;;5044876;28;20060;-74
2023/09/17 04:54:45;;;;;;;17.65;5.80;;;;;;;;;;5037734;28;20048;-74
2023/09/17 04:58:26;;;;;;;17.83;5.65;;;;;;;;;;5041365;28;20072;-74
2023/09/17 05:02:06;;;;;;;14.30;5.00;;;;;;;;;;5043085;28;20080;-75
2023/09/17 05:05:49;;;;;;;17.15;5.63;;;;;;;;;;5045274;28;20076;-73
2023/09/17 05:09:27;;;;;;;16.25;5.25;;;;;;;;;;5036588;28;20053;-74
2023/09/17 05:13:09;;;;;;;15.38;5.00;;;;;;;;;;5040880;28;20543;-73
2023/09/17 05:16:49;;;;;;;18.48;5.57;;;;;;;;;;5035434;28;20045;-73
2023/09/17 05:20:29;;;;;;;12.23;5.40;;;;;;;;;;5044541;28;20053;-74
2023/09/17 05:24:10;;;;;;;24.13;5.50;;;;;;;;;;5038376;28;20033;-75
2023/09/17 05:27:51;;;;;;;20.27;5.95;;;;;;;;;;5041772;28;20054;-74
2023/09/17 05:31:32;;;;;;;17.80;5.28;;;;;;;;;;5042452;28;20048;-75
2023/09/17 05:35:12;;;;;;;21.77;5.80;;;;;;;;;;5043066;28;20052;-74
2023/09/17 05:38:52;;;;;;;20.98;5.45;;;;;;;;;;5040892;28;20048;-73
2023/09/17 05:42:34;;;;;;;22.33;5.05;;;;;;;;;;5041815;28;20050;-74
2023/09/17 05:46:14;;;;;;;16.38;5.55;;;;;;;;;;5036918;28;20759;-76
2023/09/17 05:49:55;;;;;;;18.10;5.35;;;;;;;;;;5038760;28;20379;-74
2023/09/17 05:53:35;;;;;;;19.70;5.43;;;;;;;;;;5040812;28;20041;-74
2023/09/17 05:57:18;;;;;;;15.77;5.32;;;;;;;;;;5041535;28;20037;-74
2023/09/17 06:01:00;;;;;;;23.20;5.85;;;;;;;;;;5045965;28;20269;-75
2023/09/17 06:04:40;;;;;;;20.77;6.22;;;;;;;;;;5047513;28;20049;-74
2023/09/17 06:08:22;;;;;;;22.38;6.78;;;;;;;;;;5046830;28;20132;-74
2023/09/17 06:11:38;;;;;;;28.37;5.70;;;;;;;;;;5041256;28;20045;-74
2023/09/17 06:14:04;;;;;;;28.75;5.82;;;;;;;;;;5048391;28;20057;-75
2023/09/17 06:16:30;;;;;;;20.30;5.40;;;;;;;;;;5049520;28;20048;-73
2023/09/17 06:18:58;;;;;;;20.70;6.00;;;;;;;;;;5046589;28;20046;-74
2023/09/17 06:21:33;;;;;;;23.45;6.57;;;;;;;;;;5026971;28;20056;-76
2023/09/17 06:24:39;;;;;;;17.83;5.85;;;;;;;;;;5045334;28;20528;-75
2023/09/17 06:28:19;;;;;;;15.55;5.80;;;;;;;;;;5039998;28;20045;-75
2023/09/17 06:31:37;;;;;;;15.02;6.03;;;;;;;;;;5040474;28;20068;-76
2023/09/17 06:34:04;;;;;;;23.40;6.03;;;;;;;;;;5040320;28;20049;-74
2023/09/17 06:36:29;;;;;;;20.25;5.47;;;;;;;;;;5043313;28;20118;-75
2023/09/17 06:38:56;;;;;;;18.95;5.40;;;;;;;;;;5047380;28;20033;-75
2023/09/17 06:41:26;;;;;;;16.40;5.65;;;;;;;;;;5047504;28;20053;-74
2023/09/17 06:43:53;;;;;;;18.45;5.93;;;;;;;;;;5045574;28;20092;-75
2023/09/17 06:46:23;;;;;;;14.00;5.80;;;;;;;;;;5042448;28;20493;-75
2023/09/17 06:48:51;;;;;;;26.58;6.30;;;;;;;;;;5045849;28;20262;-76
2023/09/17 06:51:18;;;;;;;16.73;5.35;;;;;;;;;;5048532;28;20049;-75
2023/09/17 06:54:24;;;;;;;18.73;5.53;;;;;;;;;;5048711;28;20053;-75
2023/09/17 06:58:04;;;;;;;19.02;7.32;;;;;;;;;;5044380;28;20135;-77
2023/09/17 07:01:46;;;;;;;23.10;5.50;;;;;;;;;;5029000;28;20072;-76
2023/09/17 07:04:47;;;;;;;21.80;5.40;;;;;;;;;;5034417;28;20056;-78
2023/09/17 07:07:13;;;;;;;15.23;5.28;;;;;;;;;;5031422;28;20057;-73
2023/09/17 07:09:39;;;;;;;21.17;5.78;;;;;;;;;;5031691;28;20142;-74
2023/09/17 07:12:06;;;;;;;25.23;6.22;;;;;;;;;;5032589;28;20049;-76
2023/09/17 07:14:34;;;;;;;22.65;5.20;;;;;;;;;;5028325;28;20046;-75
2023/09/17 07:17:04;;;;;;;22.27;5.43;;;;;;;;;;5034557;28;20065;-74
2023/09/17 07:19:33;;;;;;;22.92;5.40;;;;;;;;;;5029792;28;20175;-73
2023/09/17 07:21:59;;;;;;;22.38;5.40;;;;;;;;;;5031948;28;20068;-72
2023/09/17 07:24:29;;;;;;;26.70;5.28;;;;;;;;;;5018696;28;21080;-73
2023/09/17 07:26:59;;;;;;;24.50;5.10;;;;;;;;;;5028602;28;20061;-73
2023/09/17 07:29:26;;;;;;;19.15;5.20;;;;;;;;;;5026756;28;20309;-74
2023/09/17 07:31:54;;;;;;;20.75;5.05;;;;;;;;;;5022810;28;20057;-67
2023/09/17 07:35:02;;;;;;;17.55;6.20;;;;;;;;;;5024917;28;20052;-69
2023/09/17 07:38:04;;;;;;;21.90;5.88;;;;;;;;;;5026051;28;20060;-70
2023/09/17 07:40:30;;;;;;;25.75;5.20;;;;;;;;;;5027374;28;20551;-71
2023/09/17 07:43:36;;;;;;;15.65;4.82;;;;;;;;;;5021648;28;20321;-72
2023/09/17 07:47:17;;;;;;;21.75;6.03;;;;;;;;;;5022733;28;20052;-70
2023/09/17 07:50:56;;;;;;;24.38;5.38;;;;;;;;;;5031201;28;20052;-69
2023/09/17 07:54:37;;;;;;;17.65;4.85;;;;;;;;;;5027683;28;20152;-73
2023/09/17 07:58:17;;;;;;;21.42;4.82;;;;;;;;;;5026662;28;20077;-72
2023/09/17 08:01:18;;;;;;;20.63;5.65;;;;;;;;;;5024508;28;20049;-68
2023/09/17 08:03:45;;;;;;;20.52;5.18;;;;;;;;;;5026583;28;20111;-70
2023/09/17 08:06:12;;;;;;;20.48;5.20;;;;;;;;;;5028768;28;20168;-70
2023/09/17 08:08:38;;;;;;;18.52;4.70;;;;;;;;;;5024975;28;22504;-68
2023/09/17 08:11:04;;;;;;;22.05;5.07;;;;;;;;;;5030575;28;20564;-74
2023/09/17 08:14:10;;;;;;;16.00;4.07;;;;;;;;;;5031589;28;20061;-72
2023/09/17 08:17:51;;;;;;;23.73;5.40;;;;;;;;;;5032003;28;20899;-71
2023/09/17 08:21:30;;;;;;;20.75;4.30;;;;;;;;;;5025082;28;20167;-73
2023/09/17 08:25:12;;;;;;;21.80;4.85;;;;;;;;;;5028599;28;20095;-72
2023/09/17 08:28:15;;;;;;;20.20;4.63;;;;;;;;;;5030871;28;20524;-70
2023/09/17 08:31:25;;;;;;;16.42;4.00;;;;;;;;;;5028934;28;20080;-72
2023/09/17 08:35:06;;;;;;;27.17;4.40;;;;;;;;;;5028500;28;20401;-70
2023/09/17 08:38:05;;;;;;;22.20;4.50;;;;;;;;;;5031711;28;20068;-71
2023/09/17 08:40:34;;;;;;;26.38;5.10;;;;;;;;;;5033110;28;20053;-73
2023/09/17 08:43:03;;;;;;;27.20;4.25;;;;;;;;;;5023057;28;20057;-76
2023/09/17 08:45:30;;;;;;;18.73;4.43;;;;;;;;;;5022587;28;20077;-74
2023/09/17 08:47:56;;;;;;;19.88;4.25;;;;;;;;;;5025309;28;20073;-73
2023/09/17 08:50:25;;;;;;;21.50;4.55;;;;;;;;;;5031228;28;20128;-73
2023/09/17 08:52:56;;;;;;;22.58;5.30;;;;;;;;;;5027642;28;20057;-73
2023/09/17 08:55:24;;;;;;;18.88;4.55;;;;;;;;;;5023388;28;20053;-75
2023/09/17 08:57:59;;;;;;;32.13;4.53;;;;;;;;;;5020615;28;20037;-73
2023/09/17 09:00:26;;;;;;;23.13;4.40;;;;;;;;;;5021623;28;20049;-74
2023/09/17 09:02:58;;;;;;;34.00;4.80;;;;;;;;;;5026504;28;20049;-75
2023/09/17 09:05:27;;;;;;;15.25;4.90;;;;;;;;;;5025526;28;20053;-76
2023/09/17 09:07:56;;;;;;;18.33;5.18;;;;;;;;;;5027979;28;20111;-75
2023/09/17 09:10:26;;;;;;;26.67;4.35;;;;;;;;;;5022021;28;20095;-75
2023/09/17 09:13:13;;;;;;;28.92;4.90;;;;;;;;;;5018134;28;20114;-74
2023/09/17 09:15:41;;;;;;;18.95;4.30;;;;;;;;;;5014545;28;20546;-74
2023/09/17 09:18:08;;;;;;;20.40;4.28;;;;;;;;;;5022432;28;21829;-73
2023/09/17 09:21:18;;;;;;;20.85;4.95;;;;;;;;;;5023428;28;20054;-77
2023/09/17 09:24:18;;;;;;;23.02;5.18;;;;;;;;;;5017911;28;20059;-79
2023/09/17 09:26:47;;;;;;;24.98;4.93;;;;;;;;;;5016614;28;21436;-73
2023/09/17 09:29:15;;;;;;;29.25;5.32;;;;;;;;;;5020185;28;20053;-77
2023/09/17 09:32:21;;;;;;;24.90;4.45;;;;;;;;;;5021545;28;20061;-75
2023/09/17 09:36:01;;;;;;;19.42;4.53;;;;;;;;;;5026059;28;20381;-74
